Airport View

Enter AWOS ICAO identifier for current METAR.

ex. KFNL

KIOB 262305Z AUTO 31009G18KT 10SM BKN010 OVC016 02/00 A2989 RMK AO2

26 Feb 2020 23:09

Frequency: 120.675

Phone: 859-498-7001

Other Area AWOS: KSYM - KLEX - KRGA - KFGX

TAF AMD KLEX 261906Z 2619/2718 27014G26KT P6SM -RA OVC013 FM270000 30014G24KT P6SM -SN OVC012 FM270700 28013KT P6SM BKN022